Flight Track Log - Related Links

Times and Time Zones

All times are in EDT time to prevent confusion due to time zone crossing. See the N498QS flight status page for this flight to view local times or setup timezone preferences in your user account.

Time Position Orientation Groundspeed Altitude Reporting Facility
EDT Latitude Longitude Course Direction KTS MPH feet Rate Location/Type
Tue 01:07:52 PM 38.9667 -77.5333 28° Northeast 221 254 3,200  Level Potomac TRACON
Tue 01:08:53 PM 39.0333 -77.6000 322° Northwest 285 328 7,200 3,548 Climbing Potomac TRACON
Tue 01:09:47 PM 39.1000 -77.6500 330° Northwest 299 344 10,000 2,100 Climbing Potomac TRACON
Tue 01:10:13 PM 39.1331 -77.6681 337° Northwest 319 367 10,000 136 Level Washington Center
Tue 01:11:15 PM 39.2175 -77.7294 331° Northwest 324 373 10,200 1,820 Climbing Washington Center
Tue 01:12:15 PM 39.3039 -77.7908 331° Northwest 343 395 13,700 1,932 Climbing Washington Center
Tue 01:13:00 PM 39.4502 -77.1063 28° Northeast  Level Estimated
Tue 01:13:13 PM 39.3925 -77.8419 336° Northwest 348 400 14,000  Level Washington Center
Tue 01:14:14 PM 39.4925 -77.8506 356° North 348 400 14,000  Level Washington Center
Tue 01:15:14 PM 39.5944 -77.8536 359° North 354 407 14,000 776 Level Washington Center
Tue 01:17:04 PM 39.7503 -77.7542 26° Northeast 360 414 16,200 1,059 Climbing New York Center
Tue 01:18:04 PM 39.8394 -77.6575 40° Northeast 368 423 17,000 450 Climbing New York Center
Tue 01:19:04 PM 39.9200 -77.5625 42° Northeast 382 440 17,100  Climbing New York Center
Tue 01:20:05 PM 39.9986 -77.4644 44° Northeast 387 445 17,000 -446 Descending New York Center
Tue 01:21:05 PM 40.0750 -77.3686 44° Northeast 387 445 16,200 -756 Descending New York Center
Tue 01:22:04 PM 40.1494 -77.2669 46° Northeast 387 445 15,500 -807 Descending New York Center
Tue 01:23:04 PM 40.2233 -77.1733 44° Northeast 375 432 14,600 -793 Descending New York Center
Tue 01:24:05 PM 40.2969 -77.0819 43° Northeast 369 425 13,900 -744 Descending New York Center
Tue 01:25:05 PM 40.3858 -77.0167 29° Northeast 364 419 13,100 -645 Descending New York Center
Tue 01:26:06 PM 40.4747 -76.9536 28° Northeast 364 419 12,600 -712 Descending New York Center
Tue 01:27:03 PM 40.5525 -76.9006 27° Northeast 364 419 11,700 -814 Descending New York Center
Tue 01:28:04 PM 40.6517 -76.8356 26° Northeast 358 412 11,000 -298 Descending New York Center
Tue 01:29:04 PM 40.7422 -76.7778 26° Northeast 358 412 11,100  Climbing New York Center
Tue 01:30:05 PM 40.8197 -76.7269 26° Northeast 352 405 11,000 -148 Descending New York Center
Tue 01:31:06 PM 40.9108 -76.6553 31° Northeast 352 405 10,800 -655 Descending New York Center
Tue 01:32:04 PM 40.9611 -76.5664 53° Northeast 324 373 9,700 -915 Descending New York Center
Tue 01:33:04 PM 41.0053 -76.4764 57° Northeast 296 341 9,000 -350 Descending New York Center
Tue 01:34:04 PM 41.0508 -76.3922 54° Northeast 296 341 9,000  Level New York Center
Tue 01:35:04 PM 41.0900 -76.3128 57° Northeast 285 328 9,000 -400 Level New York Center
Tue 01:36:04 PM 41.1358 -76.2258 55° Northeast 285 328 8,200 -1,438 Descending New York Center
Tue 01:37:05 PM 41.1839 -76.1303 56° Northeast 285 328 6,100 -1,385 Descending New York Center
Tue 01:39:06 PM 41.2642 -75.9656 57° Northeast 268 308 4,000 -872 Descending New York Center
Tue 01:40:04 PM 41.3031 -75.8858 57° Northeast 268 308 3,500 -650 Descending New York Center
Tue 01:41:06 PM 41.3292 -75.8075 66° East 251 289 2,700 -504 Descending New York Center
Tue 01:42:03 PM 41.3647 -75.7550 48° Northeast 213 245 2,500 -403 Descending New York Center
Tue 01:43:05 PM 41.3833 -75.7119 60° Northeast 168 193 1,900 -439 Descending New York Center
Tue 01:44:06 PM 41.3825 -75.6761 92° East 121 139 1,600 3,610 Descending New York Center
Tue 01:45:03 PM 41.3947 -75.6356 68° East 121 139 9,000 7,789 Climbing New York Center

Login

Don't have an account? Register now (free) for customized features, flight alerts, and more!